• Join FlightAware (Why Join?)
  • Login
  • US Flag 
06:50AM EST


 

Airport Tracker/Info


-or-


 

Live Flight TrackerFlight Track Log ✈ EJA982 ✈ 11-May-2013 ✈ KLGA - KEDC

Flight Track Log - Related Links

Times and Time Zones

All times are in EDT time to prevent confusion due to time zone crossing. See the EJA982 flight status page for this flight to view local times or setup timezone preferences in your user account.

Time Position Orientation Groundspeed Altitude Reporting Facility
EDT Latitude Longitude Course Direction KTS MPH feet Rate Location/Type
12:27PM 40.7333 -73.8333 194° South 188 216 2,500  Level New York TRACON
12:28PM 40.6833 -73.8500 194° South 204 235 5,500 3,000 Climbing New York TRACON
12:29PM 40.6833 -73.9167 270° West 206 237 8,300 2,640 Climbing New York TRACON
12:30PM 40.7167 -73.9833 303° West 242 278 10,600 1,800 Climbing New York TRACON
12:31PM 40.7833 -74.0333 330° Northwest 301 346 12,200 1,440 Climbing New York TRACON
12:32PM 40.8333 -74.1167 308° West 307 353 13,700 1,440 Climbing New York TRACON
12:33PM 40.8333 -74.2500 270° West 331 381 15,300 1,560 Climbing New York TRACON
12:34PM 40.8167 -74.3500 258° West 327 376 16,900 840 Climbing New York TRACON
12:35PM 40.7833 -74.5000 254° West 361 415 17,000  Climbing New York TRACON
12:36PM 40.7653 -74.6314 260° West 386 444 17,000 780 Level New York Center
12:37PM 40.7372 -74.7833 256° West 393 452 18,700 1,620 Climbing New York Center
12:38PM 40.7142 -74.9078 256° West 393 452 20,300 1,740 Climbing New York Center
12:39PM 40.6906 -75.0433 257° West 393 452 22,200 1,860 Climbing New York Center
12:40PM 40.6356 -75.1767 242° Southwest 393 452 24,100 1,620 Climbing New York Center
12:41PM 40.5831 -75.3017 241° Southwest 393 452 25,500 1,440 Climbing New York Center
12:42PM 40.5261 -75.4264 239° Southwest 393 452 27,000 1,320 Climbing New York Center
12:43PM 40.4667 -75.5533 238° Southwest 400 460 28,200 1,140 Climbing New York Center
12:44PM 40.4072 -75.6853 239° Southwest 414 476 29,400 1,140 Climbing New York Center
12:45PM 40.3453 -75.8172 238° Southwest 420 483 30,600 1,140 Climbing New York Center
12:46PM 40.2839 -75.9378 236° Southwest 436 502 31,700 1,140 Climbing New York Center
12:47PM 40.2236 -76.0719 240° Southwest 436 502 32,900 1,200 Climbing New York Center
12:48PM 40.1858 -76.2186 251° West 431 496 34,100 1,140 Climbing New York Center
12:49PM 40.1475 -76.3706 252° West 437 503 35,200 1,140 Climbing New York Center
12:51PM 40.0822 -76.6217 251° West 434 499 37,300 1,200 Climbing Washington Center
12:52PM 40.0433 -76.7650 251° West 434 499 38,500 1,140 Climbing Washington Center
12:53PM 40.0022 -76.9158 250° West 424 488 39,600 720 Climbing Washington Center
12:54PM 39.9672 -77.0614 253° West 419 482 40,000 180 Climbing Washington Center
12:55PM 39.9256 -77.2147 251° West 428 493 40,000  Level Washington Center
12:56PM 39.8861 -77.3625 251° West 440 506 40,000  Level Washington Center
12:57PM 39.8464 -77.5131 251° West 440 506 40,000  Level Washington Center
12:58PM 39.8064 -77.6658 251° West 445 512 40,000  Level Washington Center
12:59PM 39.7661 -77.8158 251° West 445 512 40,000  Level Washington Center
01:00PM 39.7258 -77.9575 250° West 451 519 40,000  Level Washington Center
01:01PM 39.6853 -78.1072 251° West 451 519 40,000  Level Washington Center
01:02PM 39.6467 -78.2594 252° West 451 519 40,000  Level Washington Center
01:03PM 39.6036 -78.4089 250° West 451 519 40,000  Level Washington Center
01:05PM 39.5153 -78.7217 250° West 447 514 40,000  Level Indianapolis Center
01:06PM 39.4750 -78.8694 251° West 449 517 40,000  Level Indianapolis Center
01:07PM 39.4342 -79.0136 250° West 443 510 40,000  Level Indianapolis Center
01:08PM 39.3917 -79.1556 249° West 440 506 40,000  Level Indianapolis Center
01:09PM 39.3425 -79.3297 250° West 440 506 40,000  Level Indianapolis Center
01:10PM 39.2964 -79.4861 249° West 443 510 40,000  Level Indianapolis Center
01:11PM 39.2531 -79.6344 249° West 443 510 40,000  Level Indianapolis Center
01:12PM 39.2094 -79.7836 249° West 444 511 40,000  Level Indianapolis Center
01:13PM 39.1653 -79.9322 249° West 445 512 40,000  Level Indianapolis Center
01:14PM 39.1278 -80.0764 252° West 443 510 40,000  Level Washington Center
01:15PM 39.0778 -80.2283 247° West 443 510 40,000  Level Indianapolis Center
01:16PM 39.0336 -80.3758 249° West 443 510 40,000  Level Indianapolis Center
01:17PM 38.9892 -80.5233 249° West 441 507 40,000  Level Indianapolis Center
01:18PM 38.9453 -80.6700 249° West 440 506 40,000  Level Indianapolis Center
01:19PM 38.8922 -80.8439 249° West 437 503 40,000  Level Indianapolis Center
01:20PM 38.8486 -80.9881 249° West 433 498 40,000  Level Indianapolis Center
01:21PM 38.8036 -81.1319 248° West 434 499 40,000  Level Indianapolis Center
01:22PM 38.7594 -81.2758 249° West 434 499 40,000  Level Indianapolis Center
01:23PM 38.7144 -81.4203 248° West 430 495 40,000  Level Indianapolis Center
01:24PM 38.6700 -81.5642 248° West 433 498 40,000  Level Indianapolis Center
01:25PM 38.6219 -81.7178 248° West 433 498 40,000  Level Indianapolis Center
01:26PM 38.5764 -81.8611 248° West 433 498 40,000  Level Indianapolis Center
01:27PM 38.5317 -82.0031 248° West 432 497 40,000  Level Indianapolis Center
01:28PM 38.4861 -82.1472 248° West 436 502 40,000  Level Indianapolis Center
01:29PM 38.4400 -82.2892 248° West 435 501 40,000  Level Indianapolis Center
01:30PM 38.3936 -82.4322 248° West 434 499 40,000  Level Indianapolis Center
01:31PM 38.3439 -82.5853 248° West 433 498 40,000  Level Indianapolis Center
01:32PM 38.2978 -82.7250 247° West 429 494 40,000  Level Indianapolis Center
01:33PM 38.2517 -82.8667 248° West 431 496 40,000  Level Indianapolis Center
01:34PM 38.1981 -83.0308 247° West 431 496 40,000  Level Indianapolis Center
01:35PM 38.1519 -83.1700 247° West 429 494 40,000  Level Indianapolis Center
01:36PM 38.1058 -83.3089 247° West 428 493 40,000  Level Indianapolis Center
01:37PM 38.0594 -83.4475 247° West 426 490 40,000  Level Indianapolis Center
01:38PM 38.0125 -83.5869 247° West 430 495 40,000  Level Indianapolis Center
01:39PM 37.9653 -83.7250 247° West 429 494 40,000  Level Indianapolis Center
01:41PM 37.9189 -83.8631 247° West 427 491 40,000  Level Indianapolis Center
01:42PM 37.8631 -84.0228 246° West 426 490 40,000  Level Indianapolis Center
01:43PM 37.8169 -84.1619 247° West 429 494 40,000  Level Indianapolis Center
01:44PM 37.7689 -84.2994 246° West 429 494 40,000  Level Indianapolis Center
01:45PM 37.7222 -84.4375 247° West 428 493 40,000  Level Indianapolis Center
01:46PM 37.6733 -84.5767 246° West 431 496 40,000  Level Indianapolis Center
01:47PM 37.6244 -84.7147 246° West 432 497 40,000  Level Indianapolis Center
01:48PM 37.5769 -84.8536 247° West 431 496 40,000  Level Indianapolis Center
01:49PM 37.5272 -84.9908 245° Southwest 429 494 40,000  Level Indianapolis Center
01:50PM 37.4703 -85.1517 246° West 431 496 40,000  Level Indianapolis Center
01:51PM 37.4208 -85.2883 246° West 431 496 40,000  Level Indianapolis Center
01:52PM 37.3722 -85.4258 246° West 430 495 40,000  Level Indianapolis Center
01:53PM 37.3281 -85.5542 247° West 435 501 40,000  Level Indianapolis Center
01:54PM 37.2736 -85.7025 245° Southwest 431 496 40,000  Level Indianapolis Center
01:55PM 37.2247 -85.8367 245° Southwest 431 496 40,000  Level Indianapolis Center
01:56PM 37.1756 -85.9722 246° West 426 490 40,000  Level Indianapolis Center
01:57PM 37.1264 -86.1078 246° West 426 490 40,000  Level Indianapolis Center
01:58PM 37.0767 -86.2433 245° Southwest 424 488 40,000  Level Indianapolis Center
01:59PM 37.0272 -86.3786 245° Southwest 425 489 40,000  Level Indianapolis Center
02:00PM 36.9769 -86.5122 245° Southwest 423 487 40,000  Level Indianapolis Center
02:01PM 36.9189 -86.6700 245° Southwest 426 490 40,000  Level Indianapolis Center
02:02PM 36.8706 -86.8042 246° West 429 494 40,000  Level Memphis Center
02:03PM 36.8161 -86.9489 245° Southwest 429 494 40,000  Level Memphis Center
02:04PM 36.7656 -87.0833 245° Southwest 429 494 40,000  Level Memphis Center
02:05PM 36.7150 -87.2172 245° Southwest 429 494 40,000  Level Memphis Center
02:06PM 36.6661 -87.3486 245° Southwest 429 494 40,000  Level Memphis Center
02:07PM 36.6150 -87.4822 245° Southwest 424 488 40,000  Level Memphis Center
02:08PM 36.5639 -87.6133 244° Southwest 429 494 40,000  Level Memphis Center
02:09PM 36.5125 -87.7417 244° Southwest 429 494 40,000  Level Memphis Center
02:10PM 36.4611 -87.8747 244° Southwest 429 494 40,000  Level Memphis Center
02:11PM 36.4114 -88.0053 245° Southwest 424 488 40,000  Level Memphis Center
02:12PM 36.3597 -88.1356 244° Southwest 430 495 40,000  Level Memphis Center
02:13PM 36.3078 -88.2683 244° Southwest 425 489 40,000  Level Memphis Center
02:14PM 36.2578 -88.3983 245° Southwest 425 489 40,000  Level Memphis Center
02:15PM 36.2033 -88.5308 243° Southwest 425 489 40,000  Level Memphis Center
02:16PM 36.1511 -88.6581 243° Southwest 425 489 40,000  Level Memphis Center
02:17PM 36.1047 -88.7769 244° Southwest 425 489 40,000  Level Memphis Center
02:18PM 36.0522 -88.9117 244° Southwest 430 495 40,000  Level Memphis Center
02:19PM 35.9972 -89.0383 242° Southwest 430 495 40,000  Level Memphis Center
02:20PM 35.9464 -89.1700 245° Southwest 430 495 40,000  Level Memphis Center
02:21PM 35.8914 -89.3014 243° Southwest 430 495 40,000  Level Memphis Center
02:22PM 35.8403 -89.4300 244° Southwest 425 489 40,000  Level Memphis Center
02:23PM 35.7869 -89.5611 243° Southwest 425 489 40,000  Level Memphis Center
02:24PM 35.7356 -89.6894 244° Southwest 425 489 40,000  Level Memphis Center
02:25PM 35.6819 -89.8306 245° Southwest 425 489 40,000  Level Memphis Center
02:26PM 35.6303 -89.9586 244° Southwest 425 489 40,000  Level Memphis Center
02:27PM 35.5764 -90.0864 243° Southwest 425 489 40,000  Level Memphis Center
02:28PM 35.5244 -90.2167 244° Southwest 425 489 40,000  Level Memphis Center
02:29PM 35.4683 -90.3442 242° Southwest 425 489 40,000  Level Memphis Center
02:30PM 35.4161 -90.4717 243° Southwest 425 489 40,000  Level Memphis Center
02:31PM 35.3617 -90.6014 243° Southwest 430 495 40,000  Level Memphis Center
02:32PM 35.3094 -90.7261 243° Southwest 423 487 40,000  Level Memphis Center
02:33PM 35.2547 -90.8528 242° Southwest 423 487 40,000  Level Memphis Center
02:34PM 35.2019 -90.9772 243° Southwest 423 487 40,000  Level Memphis Center
02:35PM 35.1469 -91.1036 242° Southwest 423 487 40,000  Level Memphis Center
02:36PM 35.0961 -91.2275 243° Southwest 423 487 40,000  Level Memphis Center
02:37PM 35.0453 -91.3411 241° Southwest 423 487 40,000  Level Memphis Center
02:38PM 34.9836 -91.4775 241° Southwest 423 487 40,000  Level Memphis Center
02:39PM 34.9325 -91.6008 243° Southwest 423 487 40,000  Level Memphis Center
02:40PM 34.8897 -91.6964 241° Southwest 417 480 40,000  Level Memphis Center
02:41PM 34.8233 -91.8472 242° Southwest 411 473 40,000  Level Memphis Center
02:42PM 34.7697 -91.9700 242° Southwest 411 473 40,000  Level Memphis Center
02:43PM 34.7158 -92.0903 241° Southwest 411 473 40,000  Level Memphis Center
02:44PM 34.6578 -92.2103 240° Southwest 411 473 40,000  Level Memphis Center
02:45PM 34.5956 -92.3125 234° Southwest 416 479 40,000  Level Memphis Center
02:46PM 34.5269 -92.4269 234° Southwest 421 484 40,000  Level Memphis Center
02:47PM 34.4583 -92.5411 234° Southwest 421 484 40,000  Level Memphis Center
02:48PM 34.3875 -92.6575 234° Southwest 421 484 40,000  Level Memphis Center
02:49PM 34.3225 -92.7739 236° Southwest 426 490 40,000  Level Memphis Center
02:51PM 34.1578 -93.0439 234° Southwest 416 479 40,000  Level Fort Worth Center
02:52PM 34.0867 -93.1581 233° Southwest 426 490 40,000  Level Fort Worth Center
02:53PM 34.0153 -93.2717 233° Southwest 426 490 40,000  Level Fort Worth Center
02:54PM 33.9439 -93.3853 233° Southwest 426 490 40,000  Level Fort Worth Center
02:55PM 33.8767 -93.4983 234° Southwest 426 490 40,000  Level Fort Worth Center
02:56PM 33.8028 -93.6142 233° Southwest 426 490 40,000  Level Fort Worth Center
02:57PM 33.7333 -93.7269 234° Southwest 426 490 40,000  Level Fort Worth Center
02:58PM 33.6633 -93.8372 233° Southwest 426 490 40,000  Level Fort Worth Center
02:59PM 33.5956 -93.9522 235° Southwest 426 490 40,000  Level Fort Worth Center
03:00PM 33.5317 -94.0569 234° Southwest 426 490 40,000  Level Fort Worth Center
03:01PM 33.4636 -94.1717 235° Southwest 431 496 40,000  Level Fort Worth Center
03:02PM 33.3997 -94.2833 236° Southwest 431 496 40,000  Level Fort Worth Center
03:03PM 33.3317 -94.4025 236° Southwest 431 496 40,000  Level Fort Worth Center
03:04PM 33.2675 -94.5167 236° Southwest 431 496 40,000  Level Fort Worth Center
03:05PM 33.2033 -94.6303 236° Southwest 431 496 40,000  Level Fort Worth Center
03:06PM 33.1369 -94.7442 235° Southwest 431 496 40,000  Level Fort Worth Center
03:07PM 33.0706 -94.8578 235° Southwest 431 496 40,000  Level Fort Worth Center
03:08PM 33.0081 -94.9683 236° Southwest 431 496 40,000  Level Fort Worth Center
03:09PM 32.9433 -95.0864 237° Southwest 426 490 40,000  Level Fort Worth Center
03:10PM 32.8786 -95.1947 235° Southwest 426 490 40,000  Level Fort Worth Center
03:11PM 32.8136 -95.3075 236° Southwest 426 490 40,000  Level Fort Worth Center
03:12PM 32.7489 -95.4225 236° Southwest 426 490 40,000  Level Fort Worth Center
03:13PM 32.6858 -95.5350 236° Southwest 426 490 40,000  Level Fort Worth Center
03:14PM 32.6206 -95.6497 236° Southwest 426 490 40,000  Level Fort Worth Center
03:15PM 32.5472 -95.7744 235° Southwest 426 490 40,000 -180 Level Fort Worth Center
03:16PM 32.4839 -95.8889 237° Southwest 426 490 39,700 -660 Descending Fort Worth Center
03:17PM 32.4203 -95.9933 234° Southwest 402 463 38,700 -1,020 Descending Fort Worth Center
03:18PM 32.3589 -96.1000 236° Southwest 397 457 37,700 -900 Descending Fort Worth Center
03:19PM 32.2911 -96.2042 232° Southwest 408 470 37,000 -360 Descending Fort Worth Center
03:20PM 32.2064 -96.2914 221° Southwest 408 470 37,000 -60 Level Fort Worth Center
03:21PM 32.1192 -96.3733 219° Southwest 408 470 36,900 -1,020 Descending Fort Worth Center
03:22PM 32.0261 -96.4578 218° Southwest 414 476 35,000 -960 Descending Fort Worth Center
03:23PM 31.9306 -96.5444 218° Southwest 424 488 35,000  Level Fort Worth Center
03:24PM 31.8353 -96.6358 219° Southwest 438 504 35,000 -60 Level Fort Worth Center
03:25PM 31.7397 -96.7244 218° Southwest 444 511 34,900 -1,140 Descending Fort Worth Center
03:26PM 31.6503 -96.8058 218° Southwest 429 494 32,800 -2,640 Descending Fort Worth Center
03:28PM 31.5375 -96.9075 218° Southwest 440 506 29,200 -2,820 Descending Houston Center
03:29PM 31.4378 -96.9983 218° Southwest 452 520 26,700 -2,400 Descending Houston Center
03:30PM 31.3392 -97.0886 218° Southwest 449 517 24,400 -2,100 Descending Houston Center
03:31PM 31.2447 -97.1758 218° Southwest 433 498 22,400 -1,860 Descending Houston Center
03:32PM 31.1386 -97.2375 206° Southwest 428 493 20,700 -2,340 Descending Houston Center
03:33PM 31.0236 -97.2814 198° South 434 499 17,700 -3,120 Descending Houston Center
03:34PM 30.9022 -97.3272 198° South 419 482 14,400 -2,760 Descending Houston Center
03:35PM 30.7961 -97.3694 199° South 398 458 12,200 -1,920 Descending Houston Center
03:36PM 30.7086 -97.4014 197° South 332 382 10,500 -1,560 Descending Houston Center
03:37PM 30.6339 -97.4314 199° South 293 337 9,100 -1,860 Descending Houston Center
03:38PM 30.5597 -97.4600 198° South 279 321 6,800 -2,340 Descending Houston Center
03:39PM 30.4825 -97.4897 198° South 287 330 4,400 -1,560 Descending Houston Center
03:40PM 30.4178 -97.5122 197° South 285 328 3,700 -720 Descending Houston Center